sensor_id;sensor_type;location;lat;lon;timestamp;P1;durP1;ratioP1;P2;durP2;ratioP2
76667;SDS011;65585;51.166;16.922;2023-09-19T00:00:42;6.03;;;3.15;;
76667;SDS011;65585;51.166;16.922;2023-09-19T00:03:29;4.45;;;2.88;;
76667;SDS011;65585;51.166;16.922;2023-09-19T00:08:23;3.67;;;2.70;;
76667;SDS011;65585;51.166;16.922;2023-09-19T00:10:49;4.30;;;2.85;;
76667;SDS011;65585;51.166;16.922;2023-09-19T00:13:16;4.60;;;2.63;;
76667;SDS011;65585;51.166;16.922;2023-09-19T00:15:43;9.05;;;3.10;;
76667;SDS011;65585;51.166;16.922;2023-09-19T00:18:16;4.10;;;2.40;;
76667;SDS011;65585;51.166;16.922;2023-09-19T00:20:46;3.72;;;2.25;;
76667;SDS011;65585;51.166;16.922;2023-09-19T00:23:16;3.45;;;2.10;;
76667;SDS011;65585;51.166;16.922;2023-09-19T00:25:43;4.38;;;2.30;;
76667;SDS011;65585;51.166;16.922;2023-09-19T00:28:09;5.38;;;2.67;;
76667;SDS011;65585;51.166;16.922;2023-09-19T00:30:35;4.82;;;2.40;;
76667;SDS011;65585;51.166;16.922;2023-09-19T00:33:03;5.13;;;2.45;;
76667;SDS011;65585;51.166;16.922;2023-09-19T00:35:32;3.65;;;2.00;;
76667;SDS011;65585;51.166;16.922;2023-09-19T00:37:58;3.00;;;2.00;;
76667;SDS011;65585;51.166;16.922;2023-09-19T00:40:24;5.28;;;2.30;;
76667;SDS011;65585;51.166;16.922;2023-09-19T00:42:51;6.22;;;2.40;;
76667;SDS011;65585;51.166;16.922;2023-09-19T00:45:18;5.03;;;2.53;;
76667;SDS011;65585;51.166;16.922;2023-09-19T00:47:49;4.85;;;2.30;;
76667;SDS011;65585;51.166;16.922;2023-09-19T00:50:19;4.28;;;2.08;;
76667;SDS011;65585;51.166;16.922;2023-09-19T00:52:49;3.83;;;2.40;;
76667;SDS011;65585;51.166;16.922;2023-09-19T00:55:16;4.38;;;2.20;;
76667;SDS011;65585;51.166;16.922;2023-09-19T00:57:45;4.03;;;2.20;;
76667;SDS011;65585;51.166;16.922;2023-09-19T01:00:13;4.85;;;2.22;;
76667;SDS011;65585;51.166;16.922;2023-09-19T01:02:41;3.83;;;2.15;;
76667;SDS011;65585;51.166;16.922;2023-09-19T01:05:12;4.13;;;2.33;;
76667;SDS011;65585;51.166;16.922;2023-09-19T01:07:39;5.30;;;2.22;;
76667;SDS011;65585;51.166;16.922;2023-09-19T01:10:11;4.97;;;2.70;;
76667;SDS011;65585;51.166;16.922;2023-09-19T01:15:49;4.47;;;2.20;;
76667;SDS011;65585;51.166;16.922;2023-09-19T01:18:43;3.33;;;2.42;;
76667;SDS011;65585;51.166;16.922;2023-09-19T01:32:19;4.97;;;2.60;;
76667;SDS011;65585;51.166;16.922;2023-09-19T01:37:19;6.03;;;2.80;;
76667;SDS011;65585;51.166;16.922;2023-09-19T01:39:50;5.45;;;2.90;;
76667;SDS011;65585;51.166;16.922;2023-09-19T01:42:31;7.28;;;3.08;;
76667;SDS011;65585;51.166;16.922;2023-09-19T01:45:06;6.20;;;2.90;;
76667;SDS011;65585;51.166;16.922;2023-09-19T01:47:41;5.05;;;2.63;;
76667;SDS011;65585;51.166;16.922;2023-09-19T01:52:48;4.35;;;2.67;;
76667;SDS011;65585;51.166;16.922;2023-09-19T01:55:17;4.43;;;2.70;;
76667;SDS011;65585;51.166;16.922;2023-09-19T02:00:15;5.28;;;2.85;;
76667;SDS011;65585;51.166;16.922;2023-09-19T02:02:45;5.57;;;2.70;;
76667;SDS011;65585;51.166;16.922;2023-09-19T02:05:21;4.55;;;2.85;;
76667;SDS011;65585;51.166;16.922;2023-09-19T02:07:50;4.50;;;2.50;;
76667;SDS011;65585;51.166;16.922;2023-09-19T02:10:16;5.05;;;2.65;;
76667;SDS011;65585;51.166;16.922;2023-09-19T02:12:42;4.55;;;2.13;;
76667;SDS011;65585;51.166;16.922;2023-09-19T02:15:08;4.78;;;2.80;;
76667;SDS011;65585;51.166;16.922;2023-09-19T02:17:35;3.70;;;2.60;;
76667;SDS011;65585;51.166;16.922;2023-09-19T02:20:00;4.80;;;2.78;;
76667;SDS011;65585;51.166;16.922;2023-09-19T02:22:29;4.25;;;2.42;;
76667;SDS011;65585;51.166;16.922;2023-09-19T02:24:58;3.70;;;2.50;;
76667;SDS011;65585;51.166;16.922;2023-09-19T02:27:26;4.60;;;2.60;;
76667;SDS011;65585;51.166;16.922;2023-09-19T02:29:52;3.80;;;2.65;;
76667;SDS011;65585;51.166;16.922;2023-09-19T02:32:18;6.22;;;2.63;;
76667;SDS011;65585;51.166;16.922;2023-09-19T02:34:43;6.32;;;2.60;;
76667;SDS011;65585;51.166;16.922;2023-09-19T02:37:11;4.13;;;2.50;;
76667;SDS011;65585;51.166;16.922;2023-09-19T02:39:38;6.30;;;3.20;;
76667;SDS011;65585;51.166;16.922;2023-09-19T02:42:05;3.47;;;2.20;;
76667;SDS011;65585;51.166;16.922;2023-09-19T02:44:31;5.38;;;2.75;;
76667;SDS011;65585;51.166;16.922;2023-09-19T02:46:58;5.38;;;2.78;;
76667;SDS011;65585;51.166;16.922;2023-09-19T02:49:24;3.85;;;2.33;;
76667;SDS011;65585;51.166;16.922;2023-09-19T02:51:50;4.50;;;2.50;;
76667;SDS011;65585;51.166;16.922;2023-09-19T02:54:17;5.82;;;2.80;;
76667;SDS011;65585;51.166;16.922;2023-09-19T02:56:43;6.25;;;2.85;;
76667;SDS011;65585;51.166;16.922;2023-09-19T02:59:09;5.05;;;2.67;;
76667;SDS011;65585;51.166;16.922;2023-09-19T03:01:36;7.82;;;2.97;;
76667;SDS011;65585;51.166;16.922;2023-09-19T03:04:04;7.05;;;3.05;;
76667;SDS011;65585;51.166;16.922;2023-09-19T03:06:32;5.60;;;2.70;;
76667;SDS011;65585;51.166;16.922;2023-09-19T03:09:01;4.90;;;3.15;;
76667;SDS011;65585;51.166;16.922;2023-09-19T03:11:28;5.10;;;3.00;;
76667;SDS011;65585;51.166;16.922;2023-09-19T03:13:54;3.83;;;2.58;;
76667;SDS011;65585;51.166;16.922;2023-09-19T03:16:21;5.40;;;3.10;;
76667;SDS011;65585;51.166;16.922;2023-09-19T03:18:47;5.38;;;3.03;;
76667;SDS011;65585;51.166;16.922;2023-09-19T03:21:17;8.48;;;3.72;;
76667;SDS011;65585;51.166;16.922;2023-09-19T03:23:44;8.20;;;3.90;;
76667;SDS011;65585;51.166;16.922;2023-09-19T03:26:12;6.07;;;3.10;;
76667;SDS011;65585;51.166;16.922;2023-09-19T03:28:38;7.57;;;3.50;;
76667;SDS011;65585;51.166;16.922;2023-09-19T03:31:05;8.77;;;3.92;;
76667;SDS011;65585;51.166;16.922;2023-09-19T03:33:31;9.98;;;3.83;;
76667;SDS011;65585;51.166;16.922;2023-09-19T03:35:59;6.35;;;4.10;;
76667;SDS011;65585;51.166;16.922;2023-09-19T03:38:30;9.15;;;4.07;;
76667;SDS011;65585;51.166;16.922;2023-09-19T03:40:57;6.75;;;3.97;;
76667;SDS011;65585;51.166;16.922;2023-09-19T03:43:22;10.18;;;4.95;;
76667;SDS011;65585;51.166;16.922;2023-09-19T03:45:49;9.98;;;4.78;;
76667;SDS011;65585;51.166;16.922;2023-09-19T03:48:16;9.93;;;5.20;;
76667;SDS011;65585;51.166;16.922;2023-09-19T03:50:43;12.77;;;6.85;;
76667;SDS011;65585;51.166;16.922;2023-09-19T03:53:15;19.85;;;8.60;;
76667;SDS011;65585;51.166;16.922;2023-09-19T03:55:41;20.33;;;9.82;;
76667;SDS011;65585;51.166;16.922;2023-09-19T03:58:10;27.65;;;12.30;;
76667;SDS011;65585;51.166;16.922;2023-09-19T04:00:36;35.47;;;14.68;;
76667;SDS011;65585;51.166;16.922;2023-09-19T04:03:02;35.88;;;16.23;;
76667;SDS011;65585;51.166;16.922;2023-09-19T04:05:32;39.67;;;18.83;;
76667;SDS011;65585;51.166;16.922;2023-09-19T04:07:59;45.42;;;19.77;;
76667;SDS011;65585;51.166;16.922;2023-09-19T04:10:25;40.97;;;17.95;;
76667;SDS011;65585;51.166;16.922;2023-09-19T04:12:51;31.30;;;14.30;;
76667;SDS011;65585;51.166;16.922;2023-09-19T04:17:45;32.67;;;15.45;;
76667;SDS011;65585;51.166;16.922;2023-09-19T04:20:12;32.45;;;16.75;;
76667;SDS011;65585;51.166;16.922;2023-09-19T04:22:38;38.58;;;18.08;;
76667;SDS011;65585;51.166;16.922;2023-09-19T04:25:08;52.05;;;21.08;;
76667;SDS011;65585;51.166;16.922;2023-09-19T04:27:34;60.45;;;21.92;;
76667;SDS011;65585;51.166;16.922;2023-09-19T04:30:00;53.28;;;19.75;;
76667;SDS011;65585;51.166;16.922;2023-09-19T04:32:29;49.25;;;17.67;;
76667;SDS011;65585;51.166;16.922;2023-09-19T04:34:55;48.55;;;17.92;;
76667;SDS011;65585;51.166;16.922;2023-09-19T04:37:25;40.78;;;14.48;;
76667;SDS011;65585;51.166;16.922;2023-09-19T04:39:52;31.83;;;12.80;;
76667;SDS011;65585;51.166;16.922;2023-09-19T04:42:18;20.83;;;9.27;;
76667;SDS011;65585;51.166;16.922;2023-09-19T04:44:44;18.35;;;7.97;;
76667;SDS011;65585;51.166;16.922;2023-09-19T04:47:10;17.05;;;7.30;;
76667;SDS011;65585;51.166;16.922;2023-09-19T04:49:38;13.15;;;6.25;;
76667;SDS011;65585;51.166;16.922;2023-09-19T04:52:05;15.63;;;6.32;;
76667;SDS011;65585;51.166;16.922;2023-09-19T04:54:32;13.98;;;6.15;;
76667;SDS011;65585;51.166;16.922;2023-09-19T04:56:59;16.95;;;5.97;;
76667;SDS011;65585;51.166;16.922;2023-09-19T04:59:26;13.23;;;5.80;;
76667;SDS011;65585;51.166;16.922;2023-09-19T05:04:19;12.98;;;5.25;;
76667;SDS011;65585;51.166;16.922;2023-09-19T05:06:45;10.40;;;5.30;;
76667;SDS011;65585;51.166;16.922;2023-09-19T05:09:12;8.05;;;4.60;;
76667;SDS011;65585;51.166;16.922;2023-09-19T05:11:38;11.65;;;5.75;;
76667;SDS011;65585;51.166;16.922;2023-09-19T05:14:04;11.57;;;5.50;;
76667;SDS011;65585;51.166;16.922;2023-09-19T05:16:30;21.02;;;7.20;;
76667;SDS011;65585;51.166;16.922;2023-09-19T05:19:00;16.17;;;8.07;;
76667;SDS011;65585;51.166;16.922;2023-09-19T05:21:26;11.43;;;5.25;;
76667;SDS011;65585;51.166;16.922;2023-09-19T05:23:54;1.33;;;1.23;;
76667;SDS011;65585;51.166;16.922;2023-09-19T05:26:24;24.98;;;9.15;;
76667;SDS011;65585;51.166;16.922;2023-09-19T05:28:50;18.25;;;9.57;;
76667;SDS011;65585;51.166;16.922;2023-09-19T05:33:44;16.40;;;8.30;;
76667;SDS011;65585;51.166;16.922;2023-09-19T05:36:09;16.73;;;7.18;;
76667;SDS011;65585;51.166;16.922;2023-09-19T05:38:37;16.67;;;7.57;;
76667;SDS011;65585;51.166;16.922;2023-09-19T05:41:06;12.88;;;6.35;;
76667;SDS011;65585;51.166;16.922;2023-09-19T05:43:32;12.40;;;6.28;;
76667;SDS011;65585;51.166;16.922;2023-09-19T05:45:59;12.50;;;6.10;;
76667;SDS011;65585;51.166;16.922;2023-09-19T05:48:26;13.02;;;7.20;;
76667;SDS011;65585;51.166;16.922;2023-09-19T05:50:52;14.20;;;6.50;;
76667;SDS011;65585;51.166;16.922;2023-09-19T05:53:18;10.63;;;5.65;;
76667;SDS011;65585;51.166;16.922;2023-09-19T05:55:44;13.48;;;4.82;;
76667;SDS011;65585;51.166;16.922;2023-09-19T05:58:11;9.63;;;4.55;;
76667;SDS011;65585;51.166;16.922;2023-09-19T06:00:40;8.73;;;5.00;;
76667;SDS011;65585;51.166;16.922;2023-09-19T06:03:08;6.78;;;4.20;;
76667;SDS011;65585;51.166;16.922;2023-09-19T06:05:35;8.40;;;5.00;;
76667;SDS011;65585;51.166;16.922;2023-09-19T06:08:01;10.85;;;4.18;;
76667;SDS011;65585;51.166;16.922;2023-09-19T06:10:33;8.80;;;4.05;;
76667;SDS011;65585;51.166;16.922;2023-09-19T06:15:29;8.70;;;3.50;;
76667;SDS011;65585;51.166;16.922;2023-09-19T06:17:58;7.93;;;3.78;;
76667;SDS011;65585;51.166;16.922;2023-09-19T06:20:25;9.25;;;4.32;;
76667;SDS011;65585;51.166;16.922;2023-09-19T06:22:52;6.78;;;3.53;;
76667;SDS011;65585;51.166;16.922;2023-09-19T06:25:18;7.82;;;3.33;;
76667;SDS011;65585;51.166;16.922;2023-09-19T06:27:45;5.88;;;3.13;;
76667;SDS011;65585;51.166;16.922;2023-09-19T06:30:12;5.25;;;3.35;;
76667;SDS011;65585;51.166;16.922;2023-09-19T06:32:42;6.15;;;3.33;;
76667;SDS011;65585;51.166;16.922;2023-09-19T06:35:14;4.90;;;3.00;;
76667;SDS011;65585;51.166;16.922;2023-09-19T06:37:42;4.90;;;2.70;;
76667;SDS011;65585;51.166;16.922;2023-09-19T06:40:09;7.63;;;3.28;;
76667;SDS011;65585;51.166;16.922;2023-09-19T06:42:40;5.95;;;3.15;;
76667;SDS011;65585;51.166;16.922;2023-09-19T06:45:07;6.88;;;3.13;;
76667;SDS011;65585;51.166;16.922;2023-09-19T06:47:36;5.45;;;3.08;;
76667;SDS011;65585;51.166;16.922;2023-09-19T06:50:02;6.00;;;3.00;;
76667;SDS011;65585;51.166;16.922;2023-09-19T06:52:31;8.10;;;3.42;;
76667;SDS011;65585;51.166;16.922;2023-09-19T06:54:58;7.70;;;3.60;;
76667;SDS011;65585;51.166;16.922;2023-09-19T06:57:24;6.38;;;3.22;;
76667;SDS011;65585;51.166;16.922;2023-09-19T06:59:50;6.97;;;3.40;;
76667;SDS011;65585;51.166;16.922;2023-09-19T07:02:16;10.43;;;4.43;;
76667;SDS011;65585;51.166;16.922;2023-09-19T07:04:42;5.80;;;3.17;;
76667;SDS011;65585;51.166;16.922;2023-09-19T07:07:08;5.10;;;3.10;;
76667;SDS011;65585;51.166;16.922;2023-09-19T07:09:35;5.93;;;3.15;;
76667;SDS011;65585;51.166;16.922;2023-09-19T07:12:02;4.10;;;2.70;;
76667;SDS011;65585;51.166;16.922;2023-09-19T07:14:28;7.07;;;2.90;;
76667;SDS011;65585;51.166;16.922;2023-09-19T07:16:59;4.97;;;2.85;;
76667;SDS011;65585;51.166;16.922;2023-09-19T07:19:29;4.65;;;2.80;;
76667;SDS011;65585;51.166;16.922;2023-09-19T07:21:57;3.75;;;2.60;;
76667;SDS011;65585;51.166;16.922;2023-09-19T07:24:25;2.70;;;2.30;;
76667;SDS011;65585;51.166;16.922;2023-09-19T07:26:53;5.40;;;2.70;;
76667;SDS011;65585;51.166;16.922;2023-09-19T07:29:19;4.45;;;2.90;;
76667;SDS011;65585;51.166;16.922;2023-09-19T07:31:45;3.53;;;2.53;;
76667;SDS011;65585;51.166;16.922;2023-09-19T07:34:15;4.18;;;2.75;;
76667;SDS011;65585;51.166;16.922;2023-09-19T07:36:41;4.35;;;2.55;;
76667;SDS011;65585;51.166;16.922;2023-09-19T07:39:07;6.30;;;2.40;;
76667;SDS011;65585;51.166;16.922;2023-09-19T07:41:34;4.60;;;2.72;;
76667;SDS011;65585;51.166;16.922;2023-09-19T07:44:00;4.20;;;2.28;;
76667;SDS011;65585;51.166;16.922;2023-09-19T07:46:26;4.82;;;2.50;;
76667;SDS011;65585;51.166;16.922;2023-09-19T07:48:52;2.90;;;2.33;;
76667;SDS011;65585;51.166;16.922;2023-09-19T07:51:18;6.30;;;2.85;;
76667;SDS011;65585;51.166;16.922;2023-09-19T07:53:44;3.85;;;2.70;;
76667;SDS011;65585;51.166;16.922;2023-09-19T07:56:10;5.80;;;2.53;;
76667;SDS011;65585;51.166;16.922;2023-09-19T07:58:38;5.30;;;2.67;;
76667;SDS011;65585;51.166;16.922;2023-09-19T08:01:07;4.05;;;2.28;;
76667;SDS011;65585;51.166;16.922;2023-09-19T08:06:00;4.78;;;2.60;;
76667;SDS011;65585;51.166;16.922;2023-09-19T08:08:27;3.00;;;2.22;;
76667;SDS011;65585;51.166;16.922;2023-09-19T08:10:54;3.38;;;2.30;;
76667;SDS011;65585;51.166;16.922;2023-09-19T08:13:25;4.43;;;2.35;;
76667;SDS011;65585;51.166;16.922;2023-09-19T08:15:51;3.42;;;2.50;;
76667;SDS011;65585;51.166;16.922;2023-09-19T08:18:20;6.55;;;2.40;;
76667;SDS011;65585;51.166;16.922;2023-09-19T08:20:51;3.70;;;2.47;;
76667;SDS011;65585;51.166;16.922;2023-09-19T08:23:18;6.53;;;2.80;;
76667;SDS011;65585;51.166;16.922;2023-09-19T08:25:46;4.32;;;2.50;;
76667;SDS011;65585;51.166;16.922;2023-09-19T08:28:13;3.33;;;2.45;;
76667;SDS011;65585;51.166;16.922;2023-09-19T08:30:47;2.90;;;2.13;;
76667;SDS011;65585;51.166;16.922;2023-09-19T08:33:13;3.20;;;2.70;;
76667;SDS011;65585;51.166;16.922;2023-09-19T08:35:41;4.05;;;2.40;;
76667;SDS011;65585;51.166;16.922;2023-09-19T08:38:09;3.28;;;2.35;;
76667;SDS011;65585;51.166;16.922;2023-09-19T08:40:37;3.28;;;2.30;;
76667;SDS011;65585;51.166;16.922;2023-09-19T08:43:07;3.72;;;2.30;;
76667;SDS011;65585;51.166;16.922;2023-09-19T08:45:34;3.72;;;2.42;;
76667;SDS011;65585;51.166;16.922;2023-09-19T08:50:33;4.03;;;2.60;;
76667;SDS011;65585;51.166;16.922;2023-09-19T08:53:10;3.47;;;2.50;;
76667;SDS011;65585;51.166;16.922;2023-09-19T08:55:38;3.83;;;2.40;;
76667;SDS011;65585;51.166;16.922;2023-09-19T08:58:06;4.28;;;2.40;;
76667;SDS011;65585;51.166;16.922;2023-09-19T09:00:36;3.80;;;2.50;;
76667;SDS011;65585;51.166;16.922;2023-09-19T09:03:02;4.05;;;2.53;;
76667;SDS011;65585;51.166;16.922;2023-09-19T09:07:55;3.95;;;2.30;;
76667;SDS011;65585;51.166;16.922;2023-09-19T09:10:22;4.15;;;2.50;;
76667;SDS011;65585;51.166;16.922;2023-09-19T09:12:52;4.47;;;2.28;;
76667;SDS011;65585;51.166;16.922;2023-09-19T09:15:22;3.22;;;2.22;;
76667;SDS011;65585;51.166;16.922;2023-09-19T09:17:49;4.05;;;2.40;;
76667;SDS011;65585;51.166;16.922;2023-09-19T09:20:19;3.10;;;2.40;;
76667;SDS011;65585;51.166;16.922;2023-09-19T09:22:52;3.33;;;2.20;;
76667;SDS011;65585;51.166;16.922;2023-09-19T09:25:20;5.20;;;2.50;;
76667;SDS011;65585;51.166;16.922;2023-09-19T09:28:00;3.47;;;2.25;;
76667;SDS011;65585;51.166;16.922;2023-09-19T09:30:36;3.30;;;2.20;;
76667;SDS011;65585;51.166;16.922;2023-09-19T09:33:12;3.42;;;2.30;;
76667;SDS011;65585;51.166;16.922;2023-09-19T09:35:50;3.20;;;2.22;;
76667;SDS011;65585;51.166;16.922;2023-09-19T09:38:22;3.80;;;2.25;;
76667;SDS011;65585;51.166;16.922;2023-09-19T09:40:58;7.50;;;2.25;;
76667;SDS011;65585;51.166;16.922;2023-09-19T09:43:28;3.75;;;2.50;;
76667;SDS011;65585;51.166;16.922;2023-09-19T09:46:15;5.85;;;2.20;;
76667;SDS011;65585;51.166;16.922;2023-09-19T09:48:57;3.80;;;2.42;;
76667;SDS011;65585;51.166;16.922;2023-09-19T09:52:24;4.47;;;2.63;;
76667;SDS011;65585;51.166;16.922;2023-09-19T09:54:58;3.15;;;1.90;;
76667;SDS011;65585;51.166;16.922;2023-09-19T09:57:33;3.22;;;2.05;;
76667;SDS011;65585;51.166;16.922;2023-09-19T10:00:00;3.35;;;1.98;;
76667;SDS011;65585;51.166;16.922;2023-09-19T10:02:39;2.78;;;2.03;;
76667;SDS011;65585;51.166;16.922;2023-09-19T10:05:16;2.42;;;1.90;;
76667;SDS011;65585;51.166;16.922;2023-09-19T10:07:53;3.20;;;2.10;;
76667;SDS011;65585;51.166;16.922;2023-09-19T10:10:32;4.15;;;1.95;;
76667;SDS011;65585;51.166;16.922;2023-09-19T10:13:09;4.30;;;2.10;;
76667;SDS011;65585;51.166;16.922;2023-09-19T10:15:44;3.90;;;2.10;;
76667;SDS011;65585;51.166;16.922;2023-09-19T10:18:20;2.17;;;1.80;;
76667;SDS011;65585;51.166;16.922;2023-09-19T10:20:47;3.58;;;2.00;;
76667;SDS011;65585;51.166;16.922;2023-09-19T10:23:17;3.00;;;2.20;;
76667;SDS011;65585;51.166;16.922;2023-09-19T10:25:51;2.83;;;2.13;;
76667;SDS011;65585;51.166;16.922;2023-09-19T10:28:19;4.78;;;2.08;;
76667;SDS011;65585;51.166;16.922;2023-09-19T10:30:49;4.65;;;2.08;;
76667;SDS011;65585;51.166;16.922;2023-09-19T10:33:17;3.47;;;2.15;;
76667;SDS011;65585;51.166;16.922;2023-09-19T10:35:50;3.80;;;2.00;;
76667;SDS011;65585;51.166;16.922;2023-09-19T10:38:17;2.47;;;1.92;;
76667;SDS011;65585;51.166;16.922;2023-09-19T10:40:50;5.20;;;2.13;;
76667;SDS011;65585;51.166;16.922;2023-09-19T10:43:18;3.15;;;1.90;;
76667;SDS011;65585;51.166;16.922;2023-09-19T10:45:47;2.90;;;1.90;;
76667;SDS011;65585;51.166;16.922;2023-09-19T10:48:20;4.03;;;1.85;;
76667;SDS011;65585;51.166;16.922;2023-09-19T10:53:27;2.83;;;1.60;;
76667;SDS011;65585;51.166;16.922;2023-09-19T10:55:55;4.28;;;1.98;;
76667;SDS011;65585;51.166;16.922;2023-09-19T10:58:26;2.95;;;1.88;;
76667;SDS011;65585;51.166;16.922;2023-09-19T11:00:56;3.33;;;1.80;;
76667;SDS011;65585;51.166;16.922;2023-09-19T11:03:32;4.13;;;1.83;;
76667;SDS011;65585;51.166;16.922;2023-09-19T11:06:20;2.25;;;1.70;;
76667;SDS011;65585;51.166;16.922;2023-09-19T11:08:58;2.92;;;1.90;;
76667;SDS011;65585;51.166;16.922;2023-09-19T11:17:23;2.90;;;1.92;;
76667;SDS011;65585;51.166;16.922;2023-09-19T11:30:32;3.10;;;1.58;;
76667;SDS011;65585;51.166;16.922;2023-09-19T11:33:21;3.67;;;1.80;;
76667;SDS011;65585;51.166;16.922;2023-09-19T11:43:51;3.88;;;1.80;;
76667;SDS011;65585;51.166;16.922;2023-09-19T11:46:20;2.47;;;1.52;;
76667;SDS011;65585;51.166;16.922;2023-09-19T11:48:50;3.08;;;1.70;;
76667;SDS011;65585;51.166;16.922;2023-09-19T11:51:17;3.42;;;1.80;;
76667;SDS011;65585;51.166;16.922;2023-09-19T11:53:45;2.90;;;1.60;;
76667;SDS011;65585;51.166;16.922;2023-09-19T11:56:17;2.92;;;1.70;;
76667;SDS011;65585;51.166;16.922;2023-09-19T11:58:46;2.70;;;1.75;;
76667;SDS011;65585;51.166;16.922;2023-09-19T12:01:15;3.78;;;1.52;;
76667;SDS011;65585;51.166;16.922;2023-09-19T12:03:49;3.03;;;1.63;;
76667;SDS011;65585;51.166;16.922;2023-09-19T12:06:19;3.20;;;1.80;;
76667;SDS011;65585;51.166;16.922;2023-09-19T12:08:47;2.72;;;1.60;;
76667;SDS011;65585;51.166;16.922;2023-09-19T12:11:14;3.55;;;1.70;;
76667;SDS011;65585;51.166;16.922;2023-09-19T12:16:18;2.83;;;1.80;;
76667;SDS011;65585;51.166;16.922;2023-09-19T12:18:50;2.63;;;1.65;;
76667;SDS011;65585;51.166;16.922;2023-09-19T12:21:30;2.88;;;1.70;;
76667;SDS011;65585;51.166;16.922;2023-09-19T12:26:42;2.20;;;1.70;;
76667;SDS011;65585;51.166;16.922;2023-09-19T12:29:12;2.33;;;1.60;;
76667;SDS011;65585;51.166;16.922;2023-09-19T12:31:49;5.63;;;1.70;;
76667;SDS011;65585;51.166;16.922;2023-09-19T12:34:31;2.40;;;1.60;;
76667;SDS011;65585;51.166;16.922;2023-09-19T12:37:05;2.20;;;1.50;;
76667;SDS011;65585;51.166;16.922;2023-09-19T12:39:38;6.63;;;1.65;;
76667;SDS011;65585;51.166;16.922;2023-09-19T12:42:07;2.65;;;1.67;;
76667;SDS011;65585;51.166;16.922;2023-09-19T12:44:36;2.53;;;1.80;;
76667;SDS011;65585;51.166;16.922;2023-09-19T12:47:10;2.22;;;1.67;;
76667;SDS011;65585;51.166;16.922;2023-09-19T12:49:54;3.20;;;1.63;;
76667;SDS011;65585;51.166;16.922;2023-09-19T12:52:34;6.47;;;1.80;;
76667;SDS011;65585;51.166;16.922;2023-09-19T12:55:01;2.55;;;1.60;;
76667;SDS011;65585;51.166;16.922;2023-09-19T12:57:28;2.72;;;1.80;;
76667;SDS011;65585;51.166;16.922;2023-09-19T12:59:57;2.10;;;1.48;;
76667;SDS011;65585;51.166;16.922;2023-09-19T13:02:24;2.90;;;1.80;;
76667;SDS011;65585;51.166;16.922;2023-09-19T13:04:54;2.75;;;1.83;;
76667;SDS011;65585;51.166;16.922;2023-09-19T13:07:43;2.22;;;1.70;;
76667;SDS011;65585;51.166;16.922;2023-09-19T13:10:12;3.50;;;1.60;;
76667;SDS011;65585;51.166;16.922;2023-09-19T13:12:43;2.38;;;1.55;;
76667;SDS011;65585;51.166;16.922;2023-09-19T13:18:17;2.63;;;1.98;;
76667;SDS011;65585;51.166;16.922;2023-09-19T13:21:05;4.82;;;2.05;;
76667;SDS011;65585;51.166;16.922;2023-09-19T13:23:38;4.10;;;1.60;;
76667;SDS011;65585;51.166;16.922;2023-09-19T13:26:04;2.45;;;1.80;;
76667;SDS011;65585;51.166;16.922;2023-09-19T13:28:33;2.60;;;1.52;;
76667;SDS011;65585;51.166;16.922;2023-09-19T13:30:59;4.47;;;1.70;;
76667;SDS011;65585;51.166;16.922;2023-09-19T13:33:27;2.20;;;1.55;;
76667;SDS011;65585;51.166;16.922;2023-09-19T13:35:53;2.78;;;2.00;;
76667;SDS011;65585;51.166;16.922;2023-09-19T13:38:19;2.15;;;1.60;;
76667;SDS011;65585;51.166;16.922;2023-09-19T13:40:47;2.53;;;1.60;;
76667;SDS011;65585;51.166;16.922;2023-09-19T13:43:13;3.03;;;1.70;;
76667;SDS011;65585;51.166;16.922;2023-09-19T13:45:40;2.50;;;1.60;;
76667;SDS011;65585;51.166;16.922;2023-09-19T13:48:09;2.67;;;1.60;;
76667;SDS011;65585;51.166;16.922;2023-09-19T13:50:45;2.83;;;1.63;;
76667;SDS011;65585;51.166;16.922;2023-09-19T13:53:13;2.75;;;1.60;;
76667;SDS011;65585;51.166;16.922;2023-09-19T13:55:39;3.05;;;1.75;;
76667;SDS011;65585;51.166;16.922;2023-09-19T13:58:05;2.70;;;1.73;;
76667;SDS011;65585;51.166;16.922;2023-09-19T14:00:32;3.25;;;1.65;;
76667;SDS011;65585;51.166;16.922;2023-09-19T14:03:00;4.40;;;1.65;;
76667;SDS011;65585;51.166;16.922;2023-09-19T14:05:26;2.20;;;1.50;;
76667;SDS011;65585;51.166;16.922;2023-09-19T14:10:22;2.50;;;1.55;;
76667;SDS011;65585;51.166;16.922;2023-09-19T14:12:48;3.30;;;1.70;;
76667;SDS011;65585;51.166;16.922;2023-09-19T14:15:14;2.00;;;1.40;;
76667;SDS011;65585;51.166;16.922;2023-09-19T14:17:42;2.90;;;1.52;;
76667;SDS011;65585;51.166;16.922;2023-09-19T14:20:08;2.60;;;1.70;;
76667;SDS011;65585;51.166;16.922;2023-09-19T14:22:36;3.15;;;1.77;;
76667;SDS011;65585;51.166;16.922;2023-09-19T14:25:05;2.88;;;1.63;;
76667;SDS011;65585;51.166;16.922;2023-09-19T14:27:32;2.30;;;1.60;;
76667;SDS011;65585;51.166;16.922;2023-09-19T14:29:58;2.00;;;1.50;;
76667;SDS011;65585;51.166;16.922;2023-09-19T14:32:24;1.90;;;1.52;;
76667;SDS011;65585;51.166;16.922;2023-09-19T14:34:49;2.40;;;1.83;;
76667;SDS011;65585;51.166;16.922;2023-09-19T14:37:16;3.10;;;1.67;;
76667;SDS011;65585;51.166;16.922;2023-09-19T14:39:42;4.68;;;1.60;;
76667;SDS011;65585;51.166;16.922;2023-09-19T14:42:11;2.70;;;1.70;;
76667;SDS011;65585;51.166;16.922;2023-09-19T14:44:37;2.50;;;1.50;;
76667;SDS011;65585;51.166;16.922;2023-09-19T14:47:04;3.05;;;1.70;;
76667;SDS011;65585;51.166;16.922;2023-09-19T14:49:33;2.78;;;1.60;;
76667;SDS011;65585;51.166;16.922;2023-09-19T14:52:15;3.50;;;1.58;;
76667;SDS011;65585;51.166;16.922;2023-09-19T14:54:57;2.05;;;1.60;;
76667;SDS011;65585;51.166;16.922;2023-09-19T14:57:51;3.65;;;1.83;;
76667;SDS011;65585;51.166;16.922;2023-09-19T15:00:35;2.50;;;1.73;;
76667;SDS011;65585;51.166;16.922;2023-09-19T15:03:12;3.78;;;1.88;;
76667;SDS011;65585;51.166;16.922;2023-09-19T15:06:09;3.17;;;1.70;;
76667;SDS011;65585;51.166;16.922;2023-09-19T15:08:57;2.53;;;1.90;;
76667;SDS011;65585;51.166;16.922;2023-09-19T15:11:38;2.85;;;1.63;;
76667;SDS011;65585;51.166;16.922;2023-09-19T15:14:03;2.25;;;1.60;;
76667;SDS011;65585;51.166;16.922;2023-09-19T15:16:30;1.70;;;1.35;;
76667;SDS011;65585;51.166;16.922;2023-09-19T15:18:56;2.45;;;1.60;;
76667;SDS011;65585;51.166;16.922;2023-09-19T15:21:23;2.65;;;1.50;;
76667;SDS011;65585;51.166;16.922;2023-09-19T15:23:49;3.55;;;1.77;;
76667;SDS011;65585;51.166;16.922;2023-09-19T15:26:16;2.15;;;1.55;;
76667;SDS011;65585;51.166;16.922;2023-09-19T15:28:50;4.70;;;1.70;;
76667;SDS011;65585;51.166;16.922;2023-09-19T15:31:20;3.35;;;1.83;;
76667;SDS011;65585;51.166;16.922;2023-09-19T15:33:48;3.65;;;1.50;;
76667;SDS011;65585;51.166;16.922;2023-09-19T15:36:14;2.45;;;1.55;;
76667;SDS011;65585;51.166;16.922;2023-09-19T15:43:57;2.40;;;1.60;;
76667;SDS011;65585;51.166;16.922;2023-09-19T15:46:27;3.75;;;1.90;;
76667;SDS011;65585;51.166;16.922;2023-09-19T15:48:55;2.10;;;1.63;;
76667;SDS011;65585;51.166;16.922;2023-09-19T15:51:21;4.20;;;1.70;;
76667;SDS011;65585;51.166;16.922;2023-09-19T15:53:53;3.33;;;1.70;;
76667;SDS011;65585;51.166;16.922;2023-09-19T15:56:25;2.45;;;1.75;;
76667;SDS011;65585;51.166;16.922;2023-09-19T15:58:51;2.15;;;1.40;;
76667;SDS011;65585;51.166;16.922;2023-09-19T16:01:19;4.55;;;1.55;;
76667;SDS011;65585;51.166;16.922;2023-09-19T16:03:47;2.13;;;1.60;;
76667;SDS011;65585;51.166;16.922;2023-09-19T16:06:18;1.85;;;1.27;;
76667;SDS011;65585;51.166;16.922;2023-09-19T16:08:50;2.83;;;1.52;;